createdAt,value
2022-10-31T00:01:29.710Z,63.87
2022-10-31T00:03:57.725Z,65.53
2022-10-31T00:06:25.902Z,64.50
2022-10-31T00:08:55.887Z,56.43
2022-10-31T00:11:24.042Z,67.03
2022-10-31T00:13:52.070Z,71.97
2022-10-31T00:16:22.806Z,81.10
2022-10-31T00:18:52.165Z,70.83
2022-10-31T00:21:19.919Z,84.37
2022-10-31T00:23:47.824Z,86.43
2022-10-31T00:26:16.185Z,95.33
2022-10-31T00:28:44.395Z,114.50
2022-10-31T00:31:13.914Z,86.80
2022-10-31T00:33:42.511Z,48.57
2022-10-31T00:36:14.070Z,45.30
2022-10-31T00:38:42.402Z,48.13
2022-10-31T00:41:10.934Z,40.27
2022-10-31T00:43:38.855Z,25.60
2022-10-31T00:46:06.931Z,44.40
2022-10-31T00:48:35.017Z,45.97
2022-10-31T00:51:03.056Z,46.03
2022-10-31T00:53:32.341Z,38.80
2022-10-31T00:56:00.399Z,55.77
2022-10-31T00:58:28.310Z,45.77
2022-10-31T01:00:57.009Z,51.17
2022-10-31T01:03:26.002Z,57.83
2022-10-31T01:06:01.827Z,61.27
2022-10-31T01:08:29.995Z,52.67
2022-10-31T01:11:04.499Z,42.23
2022-10-31T01:13:32.427Z,50.90
2022-10-31T01:16:02.194Z,37.40
2022-10-31T01:18:30.556Z,44.87
2022-10-31T01:21:04.105Z,35.50
2022-10-31T01:23:32.543Z,26.63
2022-10-31T01:26:10.607Z,21.43
2022-10-31T01:28:40.120Z,20.27
2022-10-31T01:31:10.459Z,23.97
2022-10-31T01:33:39.242Z,16.97
2022-10-31T01:36:15.804Z,21.73
2022-10-31T01:38:43.923Z,26.83
2022-10-31T01:41:15.257Z,22.80
2022-10-31T01:43:49.533Z,22.87
2022-10-31T01:46:19.803Z,14.77
2022-10-31T01:48:48.288Z,16.57
2022-10-31T01:51:19.640Z,17.40
2022-10-31T01:53:48.806Z,12.63
2022-10-31T01:56:19.435Z,15.90
2022-10-31T01:58:48.527Z,13.27
2022-10-31T02:01:18.352Z,20.93
2022-10-31T02:03:48.591Z,31.77
2022-10-31T02:06:26.562Z,46.40
2022-10-31T02:08:55.765Z,28.43
2022-10-31T02:11:25.530Z,22.93
2022-10-31T02:13:53.683Z,29.37
2022-10-31T02:16:21.566Z,18.87
2022-10-31T02:18:50.170Z,22.50
2022-10-31T02:21:22.183Z,21.23
2022-10-31T02:24:32.119Z,22.87
2022-10-31T02:27:25.765Z,20.07
2022-10-31T02:30:09.689Z,21.43
2022-10-31T02:33:00.788Z,23.40
2022-10-31T02:35:43.247Z,24.20
2022-10-31T02:38:21.602Z,18.93
2022-10-31T02:40:55.495Z,17.73
2022-10-31T02:43:29.654Z,16.83
2022-10-31T02:46:00.959Z,19.40
2022-10-31T02:48:32.092Z,15.40
2022-10-31T02:51:03.349Z,14.57
2022-10-31T02:53:34.838Z,13.87
2022-10-31T02:56:06.459Z,12.03
2022-10-31T02:58:37.331Z,17.47
2022-10-31T03:01:30.203Z,19.90
2022-10-31T03:04:28.326Z,16.90
2022-10-31T03:07:04.919Z,12.17
2022-10-31T03:09:41.528Z,11.17
2022-10-31T03:12:13.817Z,13.93
2022-10-31T03:14:45.259Z,17.43
2022-10-31T03:17:20.484Z,16.47
2022-10-31T03:19:54.610Z,21.93
2022-10-31T03:22:25.028Z,20.63
2022-10-31T03:24:55.990Z,24.67
2022-10-31T03:27:28.031Z,17.43
2022-10-31T03:29:58.251Z,40.27
2022-10-31T03:32:29.756Z,22.73
2022-10-31T03:35:03.133Z,30.50
2022-10-31T03:37:34.963Z,29.60
2022-10-31T03:40:05.098Z,30.57
2022-10-31T03:42:36.378Z,50.00
2022-10-31T03:45:08.564Z,32.07
2022-10-31T03:47:39.082Z,53.43
2022-10-31T03:50:10.762Z,47.53
2022-10-31T03:52:48.119Z,60.50
2022-10-31T03:55:20.652Z,53.20
2022-10-31T03:57:55.123Z,54.17
2022-10-31T04:00:23.238Z,78.37
2022-10-31T04:02:57.953Z,46.50
2022-10-31T04:05:27.487Z,46.80
2022-10-31T04:07:58.869Z,46.70
2022-10-31T04:10:32.857Z,37.10
2022-10-31T04:13:06.246Z,24.23
2022-10-31T04:15:35.982Z,28.03
2022-10-31T04:18:07.240Z,20.80
2022-10-31T04:20:38.091Z,24.60
2022-10-31T04:23:09.884Z,27.13
2022-10-31T04:25:40.170Z,13.53
2022-10-31T04:28:08.126Z,22.53
2022-10-31T04:30:36.079Z,20.97
2022-10-31T04:33:04.086Z,23.70
2022-10-31T04:35:32.039Z,16.13
2022-10-31T04:38:01.474Z,10.77
2022-10-31T04:40:29.400Z,22.80
2022-10-31T04:42:57.458Z,42.97
2022-10-31T04:45:25.495Z,57.83
2022-10-31T04:47:53.511Z,63.07
2022-10-31T04:50:21.463Z,30.80
2022-10-31T04:52:49.347Z,34.47
2022-10-31T04:55:18.943Z,79.90
2022-10-31T04:57:48.362Z,54.43
2022-10-31T05:00:18.296Z,86.77
2022-10-31T05:02:47.024Z,67.27
2022-10-31T05:05:15.330Z,72.63
2022-10-31T05:07:44.282Z,80.63
2022-10-31T05:10:13.263Z,47.93
2022-10-31T05:12:49.067Z,30.17
2022-10-31T05:15:18.073Z,25.37
2022-10-31T05:17:46.413Z,24.70
2022-10-31T05:20:16.118Z,15.53
2022-10-31T05:22:45.539Z,19.90
2022-10-31T05:25:13.903Z,23.47
2022-10-31T05:27:42.356Z,25.87
2022-10-31T05:30:14.176Z,35.90
2022-10-31T05:32:42.917Z,20.37
2022-10-31T05:35:15.267Z,37.40
2022-10-31T05:37:43.172Z,40.20
2022-10-31T05:40:12.947Z,68.63
2022-10-31T05:42:41.567Z,44.17
2022-10-31T05:45:12.370Z,60.60
2022-10-31T05:47:40.302Z,48.20
2022-10-31T05:50:09.959Z,41.70
2022-10-31T05:52:37.863Z,38.43
2022-10-31T05:55:06.229Z,23.33
2022-10-31T05:57:35.561Z,43.67
2022-10-31T06:00:03.678Z,38.27
2022-10-31T06:02:35.421Z,31.23
2022-10-31T06:05:03.510Z,17.67
2022-10-31T06:07:34.809Z,9.90
2022-10-31T06:10:03.441Z,8.50
2022-10-31T06:12:31.391Z,25.43
2022-10-31T06:14:59.287Z,14.40
2022-10-31T06:17:27.150Z,15.27
2022-10-31T06:19:56.397Z,12.63
2022-10-31T06:22:24.294Z,11.50
2022-10-31T06:24:52.203Z,7.30
2022-10-31T06:27:20.170Z,11.80
2022-10-31T06:29:48.099Z,9.60
2022-10-31T06:32:16.046Z,7.90
2022-10-31T06:34:44.366Z,10.07
2022-10-31T06:37:14.358Z,8.50
2022-10-31T06:39:42.405Z,13.87
2022-10-31T06:42:10.318Z,13.10
2022-10-31T06:44:38.215Z,20.13
2022-10-31T06:47:07.756Z,16.27
2022-10-31T06:49:35.793Z,14.23
2022-10-31T06:52:03.736Z,14.70
2022-10-31T06:54:33.065Z,8.13
2022-10-31T06:57:00.962Z,6.30
2022-10-31T06:59:28.863Z,7.73
2022-10-31T07:01:57.079Z,6.00
2022-10-31T07:04:25.422Z,5.80
2022-10-31T07:06:53.667Z,8.83
2022-10-31T07:09:21.697Z,6.17
2022-10-31T07:11:53.803Z,7.43
2022-10-31T07:14:21.736Z,5.97
2022-10-31T07:16:51.015Z,8.37
2022-10-31T07:19:19.196Z,10.70
2022-10-31T07:21:47.122Z,8.47
2022-10-31T07:24:14.974Z,9.80
2022-10-31T07:26:43.414Z,7.40
2022-10-31T07:29:12.690Z,6.27
2022-10-31T07:31:40.856Z,6.23
2022-10-31T07:34:08.731Z,18.53
2022-10-31T07:36:36.604Z,11.77
2022-10-31T07:39:04.937Z,6.03
2022-10-31T07:41:32.786Z,6.53
2022-10-31T07:44:00.663Z,14.13
2022-10-31T07:46:29.950Z,9.97
2022-10-31T07:48:57.830Z,16.33
2022-10-31T07:51:25.760Z,5.80
2022-10-31T07:53:53.662Z,11.67
2022-10-31T07:56:21.542Z,5.97
2022-10-31T07:58:49.535Z,8.33
2022-10-31T08:01:17.426Z,5.43
2022-10-31T08:03:46.694Z,12.17
2022-10-31T08:06:14.543Z,11.57
2022-10-31T08:08:42.385Z,12.40
2022-10-31T08:11:10.330Z,9.53
2022-10-31T08:13:38.197Z,7.33
2022-10-31T08:16:08.422Z,9.63
2022-10-31T08:18:38.541Z,11.00
2022-10-31T08:21:07.867Z,8.63
2022-10-31T08:23:35.722Z,6.50
2022-10-31T08:26:03.820Z,9.00
2022-10-31T08:28:31.687Z,9.47
2022-10-31T08:31:00.464Z,8.37
2022-10-31T08:33:28.461Z,9.23
2022-10-31T08:35:56.313Z,7.20
2022-10-31T08:38:25.666Z,6.20
2022-10-31T08:40:53.519Z,9.37
2022-10-31T08:43:21.393Z,7.17
2022-10-31T08:45:51.580Z,7.37
2022-10-31T08:48:19.851Z,8.10
2022-10-31T08:50:47.905Z,8.47
2022-10-31T08:53:17.844Z,10.60
2022-10-31T08:55:48.117Z,9.50
2022-10-31T08:58:17.812Z,10.60
2022-10-31T09:00:46.741Z,13.97
2022-10-31T09:03:16.983Z,9.87
2022-10-31T09:05:45.269Z,10.83
2022-10-31T09:08:16.726Z,9.93
2022-10-31T09:10:46.584Z,10.27
2022-10-31T09:13:16.583Z,5.80
2022-10-31T09:15:46.139Z,6.13
2022-10-31T09:18:15.777Z,7.97
2022-10-31T09:20:45.025Z,6.47
2022-10-31T09:23:14.478Z,6.33
2022-10-31T09:25:47.708Z,5.97
2022-10-31T09:28:22.507Z,5.83
2022-10-31T09:30:52.315Z,6.07
2022-10-31T09:33:20.534Z,6.17
2022-10-31T09:35:48.896Z,6.20
2022-10-31T09:38:20.168Z,5.70
2022-10-31T09:40:50.482Z,5.80
2022-10-31T09:43:26.802Z,6.60
2022-10-31T09:46:03.479Z,6.80
2022-10-31T09:48:53.021Z,6.53
2022-10-31T09:51:28.147Z,6.47
2022-10-31T09:54:02.837Z,6.03
2022-10-31T09:56:33.235Z,6.03
2022-10-31T09:59:07.191Z,5.63
2022-10-31T10:01:45.188Z,5.80
2022-10-31T10:04:35.574Z,6.70
2022-10-31T10:07:10.057Z,6.20
2022-10-31T10:09:38.679Z,6.97
2022-10-31T10:12:17.032Z,7.57
2022-10-31T10:18:02.078Z,6.83
2022-10-31T10:20:38.346Z,6.43
2022-10-31T10:23:30.511Z,6.53
2022-10-31T10:26:11.211Z,8.23
2022-10-31T10:28:43.937Z,12.17
2022-10-31T10:31:16.911Z,9.23
2022-10-31T10:33:54.237Z,8.50
2022-10-31T10:36:28.590Z,7.23
2022-10-31T10:39:00.607Z,6.37
2022-10-31T10:41:34.572Z,5.97
2022-10-31T10:44:03.487Z,6.70
2022-10-31T10:47:00.645Z,6.23
2022-10-31T10:49:36.982Z,7.30
2022-10-31T10:52:40.438Z,9.30
2022-10-31T10:55:16.455Z,7.50
2022-10-31T10:57:58.074Z,5.83
2022-10-31T11:00:28.778Z,7.13
2022-10-31T11:03:01.004Z,6.07
2022-10-31T11:05:36.515Z,8.23
2022-10-31T11:08:04.619Z,6.17
2022-10-31T11:10:35.275Z,7.10
2022-10-31T11:13:07.636Z,7.87
2022-10-31T11:15:39.871Z,8.57
2022-10-31T11:18:22.811Z,6.73
2022-10-31T11:20:54.529Z,9.07
2022-10-31T11:23:24.404Z,6.97
2022-10-31T11:25:55.069Z,9.32
2022-10-31T11:28:22.966Z,6.35
2022-10-31T11:30:54.139Z,9.27
2022-10-31T11:33:28.838Z,7.32
2022-10-31T11:35:58.464Z,9.30
2022-10-31T11:38:37.052Z,6.93
2022-10-31T11:41:13.453Z,6.13
2022-10-31T11:43:49.116Z,7.13
2022-10-31T11:46:22.655Z,6.28
2022-10-31T11:48:54.290Z,6.53
2022-10-31T11:51:24.404Z,6.75
2022-10-31T11:53:58.196Z,7.47
2022-10-31T11:56:38.760Z,6.40
2022-10-31T11:59:16.923Z,6.53
2022-10-31T12:01:50.549Z,7.20
2022-10-31T12:04:20.395Z,6.93
2022-10-31T12:06:49.891Z,7.43
2022-10-31T12:09:23.372Z,7.07
2022-10-31T12:12:03.271Z,7.28
2022-10-31T12:14:40.032Z,10.05
2022-10-31T12:17:15.747Z,7.78
2022-10-31T12:19:55.418Z,11.77
2022-10-31T12:22:37.044Z,9.32
2022-10-31T12:25:19.280Z,11.18
2022-10-31T12:28:22.651Z,7.63
2022-10-31T12:31:02.078Z,7.93
2022-10-31T12:33:44.175Z,7.50
2022-10-31T12:36:31.673Z,10.45
2022-10-31T12:39:28.615Z,7.68
2022-10-31T12:42:06.040Z,7.67
2022-10-31T12:45:03.778Z,10.03
2022-10-31T12:47:49.894Z,8.80
2022-10-31T12:50:28.674Z,9.17
2022-10-31T12:53:21.699Z,11.40
2022-10-31T12:55:59.430Z,8.80
2022-10-31T12:58:32.129Z,8.60
2022-10-31T13:01:10.353Z,10.63
2022-10-31T13:03:46.752Z,11.57
2022-10-31T13:06:20.504Z,11.00
2022-10-31T13:08:54.383Z,10.30
2022-10-31T13:11:26.199Z,10.00
2022-10-31T13:14:02.938Z,10.33
2022-10-31T13:16:35.152Z,10.07
2022-10-31T13:19:10.895Z,12.10
2022-10-31T13:21:46.765Z,13.60
2022-10-31T13:24:22.103Z,12.77
2022-10-31T13:26:54.408Z,11.07
2022-10-31T13:29:31.817Z,10.50
2022-10-31T13:32:02.371Z,12.07
2022-10-31T13:34:33.858Z,11.93
2022-10-31T13:37:08.348Z,10.47
2022-10-31T13:39:52.555Z,14.00
2022-10-31T13:42:31.948Z,12.20
2022-10-31T13:45:13.415Z,11.37
2022-10-31T13:47:43.854Z,12.67
2022-10-31T13:50:23.558Z,11.80
2022-10-31T13:52:51.489Z,10.10
2022-10-31T13:55:43.049Z,12.60
2022-10-31T13:58:26.227Z,12.50
2022-10-31T14:01:05.700Z,12.00
2022-10-31T14:04:04.574Z,11.20
2022-10-31T14:06:36.326Z,12.63
2022-10-31T14:09:04.767Z,11.47
2022-10-31T14:11:37.091Z,10.70
2022-10-31T14:14:13.784Z,12.83
2022-10-31T14:16:45.343Z,13.13
2022-10-31T14:19:18.926Z,14.93
2022-10-31T14:21:48.054Z,13.20
2022-10-31T14:24:17.701Z,12.17
2022-10-31T14:26:57.864Z,11.40
2022-10-31T14:29:28.776Z,10.63
2022-10-31T14:32:00.698Z,10.47
2022-10-31T14:34:32.064Z,12.30
2022-10-31T14:37:22.080Z,13.73
2022-10-31T14:40:03.768Z,11.20
2022-10-31T14:42:48.843Z,11.80
2022-10-31T14:45:38.915Z,12.07
2022-10-31T14:48:21.532Z,15.20
2022-10-31T14:50:51.567Z,12.47
2022-10-31T14:53:24.656Z,12.13
2022-10-31T14:55:56.165Z,10.63
2022-10-31T14:58:30.109Z,13.37
2022-10-31T15:00:59.443Z,11.70
2022-10-31T15:03:33.959Z,14.70
2022-10-31T15:06:06.884Z,12.87
2022-10-31T15:08:37.368Z,12.10
2022-10-31T15:11:12.297Z,12.63
2022-10-31T15:13:46.686Z,12.30
2022-10-31T15:16:17.770Z,11.53
2022-10-31T15:18:56.096Z,12.33
2022-10-31T15:21:26.135Z,12.70
2022-10-31T15:23:56.245Z,17.93
2022-10-31T15:26:25.620Z,11.73
2022-10-31T15:29:03.180Z,13.40
2022-10-31T15:31:32.010Z,11.10
2022-10-31T15:34:05.477Z,13.20
2022-10-31T15:36:37.439Z,14.50
2022-10-31T15:39:06.572Z,13.40
2022-10-31T15:41:40.772Z,13.53
2022-10-31T15:44:17.166Z,12.97
2022-10-31T15:46:45.438Z,12.33
2022-10-31T15:49:26.284Z,14.20
2022-10-31T15:51:54.692Z,11.37
2022-10-31T15:54:22.945Z,15.80
2022-10-31T15:56:50.915Z,14.17
2022-10-31T15:59:25.194Z,11.27
2022-10-31T16:02:04.164Z,10.97
2022-10-31T16:04:32.175Z,14.10
2022-10-31T16:07:02.823Z,11.93
2022-10-31T16:09:31.258Z,14.47
2022-10-31T16:12:00.506Z,13.13
2022-10-31T16:14:32.789Z,10.50
2022-10-31T16:17:03.352Z,10.73
2022-10-31T16:19:34.584Z,13.27
2022-10-31T16:22:08.888Z,12.13
2022-10-31T16:24:51.729Z,14.57
2022-10-31T16:27:24.397Z,16.43
2022-10-31T16:29:53.820Z,13.47
2022-10-31T16:32:54.458Z,14.53
2022-10-31T16:35:28.334Z,15.10
2022-10-31T16:37:56.655Z,18.20
2022-10-31T16:40:25.251Z,13.03
2022-10-31T16:42:53.503Z,13.03
2022-10-31T16:45:24.842Z,19.77
2022-10-31T16:47:53.137Z,14.90
2022-10-31T16:50:23.506Z,13.37
2022-10-31T16:55:45.865Z,12.30
2022-10-31T16:58:19.645Z,14.10
2022-10-31T17:00:49.187Z,13.70
2022-10-31T17:03:17.250Z,17.60
2022-10-31T17:05:45.158Z,10.93
2022-10-31T17:08:13.391Z,14.83
2022-10-31T17:10:42.422Z,12.97
2022-10-31T17:13:15.763Z,14.97
2022-10-31T17:15:46.564Z,16.60
2022-10-31T17:18:16.776Z,16.23
2022-10-31T17:20:45.787Z,13.90
2022-10-31T17:23:15.268Z,15.47
2022-10-31T17:25:43.986Z,22.07
2022-10-31T17:28:14.310Z,20.67
2022-10-31T17:30:43.111Z,25.27
2022-10-31T17:33:13.354Z,28.00
2022-10-31T17:35:42.696Z,37.07
2022-10-31T17:38:10.712Z,32.23
2022-10-31T17:40:39.718Z,29.87
2022-10-31T17:43:07.661Z,27.10
2022-10-31T17:45:35.571Z,26.13
2022-10-31T17:48:03.424Z,26.83
2022-10-31T17:50:31.325Z,25.10
2022-10-31T17:53:01.051Z,21.83
2022-10-31T17:55:32.894Z,20.93
2022-10-31T17:58:05.568Z,20.37
2022-10-31T18:00:34.389Z,19.13
2022-10-31T18:03:04.199Z,19.43
2022-10-31T18:05:32.661Z,19.50
2022-10-31T18:08:04.152Z,19.33
2022-10-31T18:10:32.645Z,20.50
2022-10-31T18:13:00.963Z,24.07
2022-10-31T18:15:29.153Z,23.90
2022-10-31T18:17:57.042Z,29.60
2022-10-31T18:20:24.932Z,31.43
2022-10-31T18:22:52.846Z,30.23
2022-10-31T18:25:22.093Z,37.97
2022-10-31T18:27:50.035Z,49.47
2022-10-31T18:30:18.657Z,69.00
2022-10-31T18:32:46.534Z,33.00
2022-10-31T18:35:14.467Z,31.07
2022-10-31T18:37:42.351Z,22.93
2022-10-31T18:40:10.804Z,27.33
2022-10-31T18:42:40.088Z,25.10
2022-10-31T18:45:11.998Z,29.70
2022-10-31T18:47:52.315Z,32.67
2022-10-31T18:50:20.483Z,24.43
2022-10-31T18:52:48.383Z,21.57
2022-10-31T18:55:16.441Z,23.40
2022-10-31T18:57:46.607Z,21.43
2022-10-31T19:00:15.203Z,17.10
2022-10-31T19:02:43.122Z,19.07
2022-10-31T19:05:11.025Z,17.10
2022-10-31T19:07:38.918Z,16.50
2022-10-31T19:10:07.640Z,22.47
2022-10-31T19:12:35.589Z,18.00
2022-10-31T19:15:06.472Z,20.93
2022-10-31T19:17:34.359Z,17.93
2022-10-31T19:20:02.509Z,17.63
2022-10-31T19:22:32.268Z,14.73
2022-10-31T19:25:00.222Z,15.97
2022-10-31T19:27:28.283Z,18.23
2022-10-31T19:29:56.195Z,17.67
2022-10-31T19:32:25.518Z,20.17
2022-10-31T19:34:53.402Z,48.07
2022-10-31T19:37:21.267Z,46.10
2022-10-31T19:39:49.167Z,31.00
2022-10-31T19:42:17.046Z,44.37
2022-10-31T19:44:44.908Z,76.10
2022-10-31T19:47:12.797Z,28.30
2022-10-31T19:49:42.051Z,30.47
2022-10-31T19:52:10.225Z,30.30
2022-10-31T19:54:38.168Z,27.97
2022-10-31T19:57:06.035Z,28.33
2022-10-31T19:59:38.975Z,27.53
2022-10-31T20:02:07.349Z,37.23
2022-10-31T20:04:35.265Z,29.07
2022-10-31T20:07:04.523Z,32.70
2022-10-31T20:09:32.386Z,45.27
2022-10-31T20:12:00.380Z,40.90
2022-10-31T20:14:28.285Z,60.10
2022-10-31T20:16:56.125Z,65.33
2022-10-31T20:19:25.605Z,94.10
2022-10-31T20:21:53.763Z,43.97
2022-10-31T20:24:23.418Z,56.80
2022-10-31T20:26:51.373Z,73.97
2022-10-31T20:29:19.636Z,65.00
2022-10-31T20:31:48.432Z,41.10
2022-10-31T20:34:16.681Z,60.30
2022-10-31T20:36:44.712Z,45.60
2022-10-31T20:42:06.803Z,37.43
2022-10-31T20:44:34.766Z,25.70
2022-10-31T20:49:55.478Z,38.93
2022-10-31T20:52:23.341Z,36.20
2022-10-31T20:54:51.230Z,35.80
2022-10-31T20:57:20.509Z,37.50
2022-10-31T20:59:48.396Z,44.40
2022-10-31T21:02:16.459Z,34.87
2022-10-31T21:07:37.011Z,46.33
2022-10-31T21:10:14.700Z,56.13
2022-10-31T21:15:37.939Z,47.33
2022-10-31T21:18:05.902Z,42.70
2022-10-31T21:20:33.938Z,44.10
2022-10-31T21:23:02.153Z,45.13
2022-10-31T21:25:30.471Z,41.63
2022-10-31T21:28:00.862Z,47.83
2022-10-31T21:30:28.956Z,39.83
2022-10-31T21:32:56.996Z,27.90
2022-10-31T21:35:24.873Z,33.70
2022-10-31T21:37:52.793Z,35.40
2022-10-31T21:40:20.694Z,29.50
2022-10-31T21:42:48.555Z,37.07
2022-10-31T21:45:18.403Z,36.57
2022-10-31T21:47:46.288Z,40.23
2022-10-31T21:50:14.281Z,35.57
2022-10-31T21:52:42.147Z,39.30
2022-10-31T21:55:10.127Z,45.23
2022-10-31T21:57:38.324Z,50.20
2022-10-31T22:00:09.022Z,50.03
2022-10-31T22:02:38.571Z,38.33
2022-10-31T22:05:06.883Z,53.07
2022-10-31T22:07:34.786Z,57.53
2022-10-31T22:10:02.884Z,51.43
2022-10-31T22:12:30.742Z,49.03
2022-10-31T22:14:58.670Z,47.40
2022-10-31T22:17:26.658Z,53.00
2022-10-31T22:19:55.900Z,37.73
2022-10-31T22:22:23.910Z,44.07
2022-10-31T22:24:51.799Z,44.93
2022-10-31T22:27:19.810Z,23.90
2022-10-31T22:29:47.714Z,29.80
2022-10-31T22:32:15.587Z,35.67
2022-10-31T22:34:43.491Z,35.37
2022-10-31T22:37:17.244Z,23.83
2022-10-31T22:39:47.650Z,27.73
2022-10-31T22:42:15.523Z,32.27
2022-10-31T22:44:43.370Z,38.90
2022-10-31T22:47:11.286Z,31.67
2022-10-31T22:49:39.732Z,27.77
2022-10-31T22:52:07.605Z,27.00
2022-10-31T22:54:36.875Z,34.37
2022-10-31T22:57:04.865Z,41.20
2022-10-31T22:59:33.924Z,37.60
2022-10-31T23:02:01.888Z,43.83
2022-10-31T23:04:29.799Z,41.63
2022-10-31T23:06:57.725Z,66.80
2022-10-31T23:09:25.772Z,56.07
2022-10-31T23:11:54.995Z,55.33
2022-10-31T23:14:21.902Z,87.37
2022-10-31T23:16:52.234Z,56.13
2022-10-31T23:19:22.669Z,117.67
2022-10-31T23:21:59.954Z,73.03
2022-10-31T23:24:35.992Z,52.87
2022-10-31T23:27:09.091Z,54.27
2022-10-31T23:29:40.046Z,50.03
2022-10-31T23:32:10.394Z,55.43
2022-10-31T23:34:38.349Z,70.00
2022-10-31T23:39:39.565Z,50.30
2022-10-31T23:42:09.409Z,49.70
2022-10-31T23:44:37.409Z,39.87
2022-10-31T23:47:05.493Z,50.23
2022-10-31T23:49:33.766Z,39.97
2022-10-31T23:52:02.095Z,45.33
2022-10-31T23:54:30.030Z,32.23
2022-10-31T23:56:58.321Z,19.63
2022-10-31T23:59:29.136Z,29.83
